DAL5454 KMSP-KBIS
Flight info
| Callsign | DAL5454 |
|---|---|
| Flight time | 1h 0m |
| Altitude | 32000 |
| Route | KBREW2 FAR BIS |
| Aircraft | A320/M-D/C |
Departure
| Time | 2026-04-19 04:07 |
|---|---|
| Airport | Minneapolis–Saint Paul International Airport / Wold–Chamberlain Field (KMSP) |
Arrival
| Time | 2026-04-19 05:08 |
|---|---|
| Airport | Bismarck Municipal Airport (KBIS) |
| Time | Latitude | Longitude | Altitude | Speed | Heading |
|---|---|---|---|---|---|
| 2026-04-19 03:47 | 44.88123 | -93.21224 | 825 ft | 0 kts | 10° |
| 2026-04-19 03:56 | 44.88118 | -93.21225 | 823 ft | 2 kts | 10° |
| 2026-04-19 03:56 | 44.88099 | -93.21230 | 825 ft | 3 kts | 9° |
| 2026-04-19 03:56 | 44.88079 | -93.21234 | 823 ft | 3 kts | 2° |
| 2026-04-19 03:56 | 44.88059 | -93.21234 | 825 ft | 3 kts | 359° |
| 2026-04-19 03:57 | 44.88039 | -93.21235 | 825 ft | 3 kts | 14° |
| 2026-04-19 03:57 | 44.88022 | -93.21245 | 823 ft | 3 kts | 44° |
| 2026-04-19 03:57 | 44.88013 | -93.21262 | 821 ft | 2 kts | 88° |
| 2026-04-19 03:57 | 44.88013 | -93.21267 | 821 ft | 0 kts | 91° |
| 2026-04-19 03:59 | 44.88013 | -93.21261 | 821 ft | 4 kts | 91° |
| 2026-04-19 03:59 | 44.88011 | -93.21175 | 825 ft | 13 kts | 93° |
| 2026-04-19 04:00 | 44.87979 | -93.21073 | 825 ft | 11 kts | 122° |
| 2026-04-19 04:00 | 44.87964 | -93.21039 | 824 ft | 0 kts | 122° |
| 2026-04-19 04:04 | 44.87957 | -93.21023 | 825 ft | 8 kts | 122° |
| 2026-04-19 04:04 | 44.87905 | -93.20903 | 825 ft | 19 kts | 121° |
| 2026-04-19 04:04 | 44.87830 | -93.20729 | 822 ft | 21 kts | 121° |
| 2026-04-19 04:05 | 44.87731 | -93.20637 | 826 ft | 18 kts | 177° |
| 2026-04-19 04:05 | 44.87656 | -93.20522 | 825 ft | 16 kts | 121° |
| 2026-04-19 04:05 | 44.87603 | -93.20398 | 824 ft | 14 kts | 121° |
| 2026-04-19 04:05 | 44.87557 | -93.20293 | 821 ft | 12 kts | 122° |
| 2026-04-19 04:06 | 44.87517 | -93.20202 | 824 ft | 10 kts | 122° |
| 2026-04-19 04:06 | 44.87478 | -93.20117 | 824 ft | 12 kts | 126° |
| 2026-04-19 04:06 | 44.87399 | -93.20102 | 828 ft | 15 kts | 220° |
| 2026-04-19 04:06 | 44.87411 | -93.20254 | 824 ft | 20 kts | 297° |
| 2026-04-19 04:07 | 44.87541 | -93.20556 | 824 ft | 71 kts | 302° |
| 2026-04-19 04:07 | 44.87940 | -93.21478 | 822 ft | 146 kts | 301° |
| 2026-04-19 04:07 | 44.88531 | -93.22853 | 1236 ft | 174 kts | 301° |
| 2026-04-19 04:07 | 44.89191 | -93.24351 | 2114 ft | 186 kts | 301° |
| 2026-04-19 04:08 | 44.90108 | -93.25684 | 2968 ft | 204 kts | 329° |
| 2026-04-19 04:08 | 44.91509 | -93.26327 | 3943 ft | 219 kts | 340° |
| 2026-04-19 04:08 | 44.93013 | -93.26995 | 4926 ft | 234 kts | 337° |
| 2026-04-19 04:08 | 44.94608 | -93.27774 | 5902 ft | 251 kts | 336° |
| 2026-04-19 04:09 | 44.96314 | -93.28622 | 6884 ft | 268 kts | 335° |
| 2026-04-19 04:09 | 44.98134 | -93.29522 | 7866 ft | 284 kts | 336° |
| 2026-04-19 04:09 | 45.00052 | -93.30456 | 8900 ft | 297 kts | 336° |
| 2026-04-19 04:09 | 45.02034 | -93.31406 | 9952 ft | 305 kts | 337° |
| 2026-04-19 04:10 | 45.04065 | -93.32368 | 10933 ft | 310 kts | 337° |
| 2026-04-19 04:10 | 45.06133 | -93.33347 | 11863 ft | 317 kts | 337° |
| 2026-04-19 04:10 | 45.08252 | -93.34349 | 12833 ft | 324 kts | 338° |
| 2026-04-19 04:10 | 45.10405 | -93.35365 | 13816 ft | 330 kts | 338° |
| 2026-04-19 04:11 | 45.12547 | -93.36573 | 14728 ft | 332 kts | 329° |
| 2026-04-19 04:11 | 45.14441 | -93.38453 | 15671 ft | 333 kts | 316° |
| 2026-04-19 04:11 | 45.15951 | -93.40928 | 16630 ft | 333 kts | 303° |
| 2026-04-19 04:11 | 45.17099 | -93.43776 | 17540 ft | 335 kts | 299° |
| 2026-04-19 04:12 | 45.18230 | -93.46685 | 18424 ft | 337 kts | 299° |
| 2026-04-19 04:12 | 45.19372 | -93.49610 | 19209 ft | 339 kts | 299° |
| 2026-04-19 04:12 | 45.20519 | -93.52539 | 19993 ft | 341 kts | 299° |
| 2026-04-19 04:12 | 45.21677 | -93.55493 | 20737 ft | 343 kts | 299° |
| 2026-04-19 04:13 | 45.22836 | -93.58457 | 21497 ft | 345 kts | 299° |
| 2026-04-19 04:13 | 45.23993 | -93.61429 | 22281 ft | 344 kts | 299° |
| 2026-04-19 04:13 | 45.25137 | -93.64372 | 23076 ft | 343 kts | 299° |
| 2026-04-19 04:13 | 45.26287 | -93.67335 | 23816 ft | 343 kts | 299° |
| 2026-04-19 04:14 | 45.27436 | -93.70301 | 24413 ft | 343 kts | 299° |
| 2026-04-19 04:14 | 45.28587 | -93.73269 | 25028 ft | 342 kts | 299° |
| 2026-04-19 04:14 | 45.29731 | -93.76218 | 25648 ft | 340 kts | 299° |
| 2026-04-19 04:14 | 45.30863 | -93.79145 | 26286 ft | 337 kts | 298° |
| 2026-04-19 04:15 | 45.31987 | -93.82054 | 26946 ft | 334 kts | 298° |
| 2026-04-19 04:15 | 45.33093 | -93.84925 | 27620 ft | 330 kts | 298° |
| 2026-04-19 04:15 | 45.34189 | -93.87776 | 28301 ft | 326 kts | 298° |
| 2026-04-19 04:15 | 45.35269 | -93.90587 | 29012 ft | 321 kts | 298° |
| 2026-04-19 04:16 | 45.36328 | -93.93343 | 29745 ft | 314 kts | 298° |
| 2026-04-19 04:16 | 45.37354 | -93.96013 | 30395 ft | 307 kts | 298° |
| 2026-04-19 04:16 | 45.38397 | -93.98731 | 30694 ft | 310 kts | 298° |
| 2026-04-19 04:16 | 45.39422 | -94.01400 | 30941 ft | 313 kts | 298° |
| 2026-04-19 04:17 | 45.40469 | -94.04135 | 31238 ft | 315 kts | 298° |
| 2026-04-19 04:17 | 45.41518 | -94.06883 | 31512 ft | 317 kts | 298° |
| 2026-04-19 04:17 | 45.42572 | -94.09649 | 31775 ft | 319 kts | 298° |
| 2026-04-19 04:17 | 45.43639 | -94.12443 | 32003 ft | 324 kts | 298° |
| 2026-04-19 04:18 | 45.45849 | -94.18241 | 32080 ft | 344 kts | 298° |
| 2026-04-19 04:18 | 45.47007 | -94.21283 | 32082 ft | 355 kts | 298° |
| 2026-04-19 04:18 | 45.48200 | -94.24415 | 32083 ft | 365 kts | 298° |
| 2026-04-19 04:19 | 45.50684 | -94.30949 | 32092 ft | 384 kts | 298° |
| 2026-04-19 04:19 | 45.53288 | -94.37793 | 32097 ft | 401 kts | 298° |
| 2026-04-19 04:20 | 45.56000 | -94.44901 | 32103 ft | 414 kts | 298° |
| 2026-04-19 04:20 | 45.58781 | -94.52172 | 32112 ft | 424 kts | 298° |
| 2026-04-19 04:21 | 45.61635 | -94.59619 | 32117 ft | 430 kts | 298° |
| 2026-04-19 04:21 | 45.64517 | -94.67124 | 32117 ft | 431 kts | 299° |
| 2026-04-19 04:22 | 45.67392 | -94.74636 | 32112 ft | 430 kts | 299° |
| 2026-04-19 04:22 | 45.70244 | -94.82149 | 32114 ft | 430 kts | 299° |
| 2026-04-19 04:23 | 45.73104 | -94.89663 | 32121 ft | 430 kts | 299° |
| 2026-04-19 04:23 | 45.75970 | -94.97179 | 32113 ft | 430 kts | 299° |
| 2026-04-19 04:24 | 45.78875 | -95.04672 | 32101 ft | 430 kts | 303° |
| 2026-04-19 04:24 | 45.82548 | -95.11462 | 32093 ft | 430 kts | 308° |
| 2026-04-19 04:25 | 45.86248 | -95.18194 | 32100 ft | 430 kts | 308° |
| 2026-04-19 04:25 | 45.89920 | -95.24885 | 32091 ft | 430 kts | 308° |
| 2026-04-19 04:26 | 45.93627 | -95.31643 | 32085 ft | 429 kts | 308° |
| 2026-04-19 04:26 | 45.97319 | -95.38395 | 32087 ft | 429 kts | 308° |
| 2026-04-19 04:27 | 46.01003 | -95.45161 | 32093 ft | 429 kts | 308° |
| 2026-04-19 04:27 | 46.04687 | -95.51932 | 32120 ft | 429 kts | 308° |
| 2026-04-19 04:28 | 46.08364 | -95.58704 | 32104 ft | 429 kts | 308° |
| 2026-04-19 04:28 | 46.12029 | -95.65479 | 32129 ft | 428 kts | 308° |
| 2026-04-19 04:29 | 46.15680 | -95.72255 | 32125 ft | 427 kts | 308° |
| 2026-04-19 04:29 | 46.19305 | -95.78978 | 32116 ft | 426 kts | 308° |
| 2026-04-19 04:30 | 46.22965 | -95.85782 | 32116 ft | 426 kts | 308° |
| 2026-04-19 04:30 | 46.26574 | -95.92513 | 32102 ft | 426 kts | 308° |
| 2026-04-19 04:31 | 46.30199 | -95.99302 | 32091 ft | 426 kts | 308° |
| 2026-04-19 04:31 | 46.33817 | -96.06095 | 32077 ft | 426 kts | 308° |
| 2026-04-19 04:32 | 46.37437 | -96.12889 | 32083 ft | 425 kts | 308° |
| 2026-04-19 04:32 | 46.41039 | -96.19673 | 32139 ft | 425 kts | 308° |
| 2026-04-19 04:33 | 46.44639 | -96.26481 | 32131 ft | 425 kts | 308° |
| 2026-04-19 04:33 | 46.48233 | -96.33290 | 32127 ft | 425 kts | 308° |
| 2026-04-19 04:34 | 46.51832 | -96.40114 | 32127 ft | 425 kts | 308° |
| 2026-04-19 04:34 | 46.55425 | -96.46935 | 32094 ft | 425 kts | 308° |
| 2026-04-19 04:35 | 46.59002 | -96.53764 | 32132 ft | 424 kts | 308° |
| 2026-04-19 04:35 | 46.62565 | -96.60577 | 32121 ft | 422 kts | 308° |
| 2026-04-19 04:36 | 46.66113 | -96.67373 | 32119 ft | 421 kts | 308° |
| 2026-04-19 04:36 | 46.69629 | -96.74128 | 32115 ft | 421 kts | 308° |
| 2026-04-19 04:37 | 46.73146 | -96.80945 | 32110 ft | 421 kts | 305° |
| 2026-04-19 04:37 | 46.74528 | -96.84717 | 32108 ft | 425 kts | 294° |
| 2026-04-19 04:37 | 46.75299 | -96.88886 | 32101 ft | 430 kts | 282° |
| 2026-04-19 04:38 | 46.75538 | -96.96197 | 32085 ft | 434 kts | 277° |
| 2026-04-19 04:38 | 46.75693 | -97.05014 | 32116 ft | 434 kts | 277° |
| 2026-04-19 04:39 | 46.75845 | -97.13812 | 32118 ft | 434 kts | 277° |
| 2026-04-19 04:39 | 46.75988 | -97.22601 | 32125 ft | 433 kts | 277° |
| 2026-04-19 04:40 | 46.76119 | -97.31401 | 32131 ft | 433 kts | 277° |
| 2026-04-19 04:40 | 46.76246 | -97.40203 | 32105 ft | 433 kts | 277° |
| 2026-04-19 04:41 | 46.76359 | -97.48926 | 32124 ft | 433 kts | 277° |
| 2026-04-19 04:41 | 46.76469 | -97.57690 | 32135 ft | 432 kts | 277° |
| 2026-04-19 04:42 | 46.76580 | -97.66465 | 32127 ft | 432 kts | 277° |
| 2026-04-19 04:42 | 46.76681 | -97.75225 | 32123 ft | 432 kts | 277° |
| 2026-04-19 04:43 | 46.76774 | -97.83994 | 32110 ft | 432 kts | 277° |
| 2026-04-19 04:43 | 46.76861 | -97.92751 | 31759 ft | 430 kts | 277° |
| 2026-04-19 04:44 | 46.76899 | -97.97096 | 31369 ft | 425 kts | 278° |
| 2026-04-19 04:44 | 46.76935 | -98.01382 | 30990 ft | 420 kts | 278° |
| 2026-04-19 04:44 | 46.76970 | -98.05615 | 30411 ft | 414 kts | 278° |
| 2026-04-19 04:44 | 46.76999 | -98.09728 | 29775 ft | 407 kts | 279° |
| 2026-04-19 04:45 | 46.77026 | -98.13821 | 29078 ft | 401 kts | 279° |
| 2026-04-19 04:45 | 46.77031 | -98.17868 | 28370 ft | 396 kts | 278° |
| 2026-04-19 04:45 | 46.76879 | -98.21856 | 27715 ft | 395 kts | 277° |
| 2026-04-19 04:45 | 46.76682 | -98.25942 | 27064 ft | 408 kts | 276° |
| 2026-04-19 04:46 | 46.76453 | -98.30086 | 26427 ft | 411 kts | 276° |
| 2026-04-19 04:46 | 46.76203 | -98.34230 | 25787 ft | 408 kts | 276° |
| 2026-04-19 04:46 | 46.75945 | -98.38334 | 25165 ft | 403 kts | 276° |
| 2026-04-19 04:46 | 46.75692 | -98.42371 | 24551 ft | 397 kts | 276° |
| 2026-04-19 04:47 | 46.75450 | -98.46347 | 23937 ft | 391 kts | 276° |
| 2026-04-19 04:47 | 46.75220 | -98.50289 | 23272 ft | 392 kts | 277° |
| 2026-04-19 04:47 | 46.75005 | -98.54290 | 22555 ft | 398 kts | 276° |
| 2026-04-19 04:47 | 46.74789 | -98.58311 | 21793 ft | 397 kts | 276° |
| 2026-04-19 04:48 | 46.74563 | -98.62322 | 21121 ft | 395 kts | 276° |
| 2026-04-19 04:48 | 46.74333 | -98.66290 | 20468 ft | 392 kts | 275° |
| 2026-04-19 04:48 | 46.74104 | -98.70190 | 19850 ft | 390 kts | 275° |
| 2026-04-19 04:48 | 46.73869 | -98.74125 | 19316 ft | 389 kts | 275° |
| 2026-04-19 04:49 | 46.73634 | -98.78045 | 18807 ft | 387 kts | 274° |
| 2026-04-19 04:49 | 46.73401 | -98.81948 | 18278 ft | 385 kts | 274° |
| 2026-04-19 04:49 | 46.73170 | -98.85826 | 17689 ft | 383 kts | 274° |
| 2026-04-19 04:49 | 46.72942 | -98.89677 | 17108 ft | 380 kts | 273° |
| 2026-04-19 04:50 | 46.72711 | -98.93494 | 16535 ft | 376 kts | 272° |
| 2026-04-19 04:50 | 46.72477 | -98.97276 | 15937 ft | 373 kts | 272° |
| 2026-04-19 04:50 | 46.72244 | -99.01024 | 15399 ft | 370 kts | 272° |
| 2026-04-19 04:50 | 46.72015 | -99.04752 | 14885 ft | 367 kts | 271° |
| 2026-04-19 04:51 | 46.71788 | -99.08441 | 14459 ft | 365 kts | 271° |
| 2026-04-19 04:51 | 46.71562 | -99.12107 | 14040 ft | 362 kts | 271° |
| 2026-04-19 04:51 | 46.71334 | -99.15757 | 13571 ft | 360 kts | 270° |
| 2026-04-19 04:51 | 46.71106 | -99.19384 | 13095 ft | 359 kts | 270° |
| 2026-04-19 04:52 | 46.70879 | -99.23014 | 12620 ft | 358 kts | 270° |
| 2026-04-19 04:52 | 46.70655 | -99.26624 | 12165 ft | 357 kts | 270° |
| 2026-04-19 04:52 | 46.70428 | -99.30228 | 11716 ft | 357 kts | 270° |
| 2026-04-19 04:52 | 46.70199 | -99.33826 | 11266 ft | 356 kts | 270° |
| 2026-04-19 04:53 | 46.69973 | -99.37368 | 10797 ft | 356 kts | 269° |
| 2026-04-19 04:53 | 46.69742 | -99.40963 | 10362 ft | 356 kts | 269° |
| 2026-04-19 04:53 | 46.69507 | -99.44557 | 9999 ft | 356 kts | 269° |
| 2026-04-19 04:53 | 46.69270 | -99.48150 | 9609 ft | 356 kts | 269° |
| 2026-04-19 04:54 | 46.69034 | -99.51734 | 9223 ft | 355 kts | 269° |
| 2026-04-19 04:54 | 46.68799 | -99.55313 | 8840 ft | 355 kts | 269° |
| 2026-04-19 04:54 | 46.68562 | -99.58884 | 8461 ft | 354 kts | 269° |
| 2026-04-19 04:54 | 46.68324 | -99.62454 | 8094 ft | 353 kts | 269° |
| 2026-04-19 04:55 | 46.68086 | -99.66018 | 7726 ft | 353 kts | 269° |
| 2026-04-19 04:55 | 46.67847 | -99.69571 | 7361 ft | 352 kts | 268° |
| 2026-04-19 04:55 | 46.67767 | -99.70771 | 7245 ft | 352 kts | 268° |
| 2026-04-19 04:56 | 46.67142 | -99.80118 | 6261 ft | 352 kts | 268° |
| 2026-04-19 04:56 | 46.66902 | -99.83674 | 5886 ft | 352 kts | 268° |
| 2026-04-19 04:56 | 46.66661 | -99.87218 | 5624 ft | 352 kts | 268° |
| 2026-04-19 04:56 | 46.66416 | -99.90773 | 5624 ft | 354 kts | 268° |
| 2026-04-19 04:57 | 46.66169 | -99.94344 | 5302 ft | 353 kts | 268° |
| 2026-04-19 04:57 | 46.65921 | -99.97894 | 4911 ft | 352 kts | 268° |
| 2026-04-19 04:57 | 46.65671 | -100.01436 | 4521 ft | 352 kts | 267° |
| 2026-04-19 04:57 | 46.65419 | -100.04989 | 4415 ft | 352 kts | 267° |
| 2026-04-19 04:58 | 46.65168 | -100.08543 | 4434 ft | 354 kts | 267° |
| 2026-04-19 04:58 | 46.64915 | -100.12104 | 4442 ft | 354 kts | 267° |
| 2026-04-19 04:58 | 46.64658 | -100.15654 | 4440 ft | 350 kts | 267° |
| 2026-04-19 04:58 | 46.64412 | -100.18993 | 4432 ft | 324 kts | 267° |
| 2026-04-19 04:59 | 46.64179 | -100.22130 | 4440 ft | 300 kts | 268° |
| 2026-04-19 04:59 | 46.63965 | -100.25040 | 4439 ft | 279 kts | 268° |
| 2026-04-19 04:59 | 46.63766 | -100.27746 | 4442 ft | 258 kts | 268° |
| 2026-04-19 04:59 | 46.63583 | -100.30245 | 4442 ft | 239 kts | 269° |
| 2026-04-19 05:00 | 46.63415 | -100.32570 | 4442 ft | 226 kts | 269° |
| 2026-04-19 05:00 | 46.63254 | -100.34826 | 4448 ft | 223 kts | 269° |
| 2026-04-19 05:00 | 46.63096 | -100.37068 | 4450 ft | 223 kts | 269° |
| 2026-04-19 05:00 | 46.62937 | -100.39275 | 4441 ft | 216 kts | 269° |
| 2026-04-19 05:01 | 46.62779 | -100.41465 | 4063 ft | 221 kts | 269° |
| 2026-04-19 05:01 | 46.62617 | -100.43718 | 3616 ft | 226 kts | 269° |
| 2026-04-19 05:01 | 46.62450 | -100.45939 | 3539 ft | 214 kts | 269° |
| 2026-04-19 05:01 | 46.62291 | -100.47987 | 3575 ft | 194 kts | 269° |
| 2026-04-19 05:02 | 46.62147 | -100.49867 | 3535 ft | 182 kts | 270° |
| 2026-04-19 05:02 | 46.62017 | -100.51675 | 3560 ft | 177 kts | 272° |
| 2026-04-19 05:02 | 46.62139 | -100.53416 | 3547 ft | 171 kts | 290° |
| 2026-04-19 05:02 | 46.62601 | -100.54970 | 3543 ft | 166 kts | 306° |
| 2026-04-19 05:03 | 46.63336 | -100.56231 | 3538 ft | 163 kts | 321° |
| 2026-04-19 05:03 | 46.64179 | -100.57330 | 3541 ft | 162 kts | 321° |
| 2026-04-19 05:03 | 46.65017 | -100.58437 | 3536 ft | 163 kts | 321° |
| 2026-04-19 05:03 | 46.65853 | -100.59544 | 3541 ft | 162 kts | 321° |
| 2026-04-19 05:04 | 46.66689 | -100.60649 | 3539 ft | 162 kts | 321° |
| 2026-04-19 05:04 | 46.67523 | -100.61752 | 3467 ft | 162 kts | 321° |
| 2026-04-19 05:04 | 46.68362 | -100.62862 | 3322 ft | 162 kts | 321° |
| 2026-04-19 05:04 | 46.69197 | -100.63967 | 3198 ft | 160 kts | 321° |
| 2026-04-19 05:05 | 46.69969 | -100.64994 | 2999 ft | 142 kts | 322° |
| 2026-04-19 05:05 | 46.70677 | -100.65936 | 2848 ft | 135 kts | 322° |
| 2026-04-19 05:05 | 46.71366 | -100.66849 | 2762 ft | 134 kts | 321° |
| 2026-04-19 05:05 | 46.72053 | -100.67760 | 2697 ft | 134 kts | 321° |
| 2026-04-19 05:06 | 46.72733 | -100.68660 | 2628 ft | 134 kts | 321° |
| 2026-04-19 05:06 | 46.73426 | -100.69577 | 2594 ft | 135 kts | 320° |
| 2026-04-19 05:06 | 46.74134 | -100.70514 | 2539 ft | 136 kts | 321° |
| 2026-04-19 05:06 | 46.74795 | -100.71498 | 2251 ft | 135 kts | 318° |
| 2026-04-19 05:07 | 46.75507 | -100.72394 | 2009 ft | 135 kts | 324° |
| 2026-04-19 05:07 | 46.76207 | -100.73298 | 1828 ft | 134 kts | 323° |
| 2026-04-19 05:07 | 46.76904 | -100.74207 | 1662 ft | 133 kts | 324° |
| 2026-04-19 05:07 | 46.77527 | -100.75020 | 1648 ft | 103 kts | 317° |
| 2026-04-19 05:08 | 46.77963 | -100.75595 | 1653 ft | 65 kts | 317° |
| 2026-04-19 05:08 | 46.78244 | -100.76155 | 1650 ft | 20 kts | 230° |
| 2026-04-19 05:08 | 46.78140 | -100.76215 | 1651 ft | 16 kts | 155° |
| 2026-04-19 05:09 | 46.78064 | -100.76120 | 1653 ft | 14 kts | 135° |
| 2026-04-19 05:09 | 46.77977 | -100.76001 | 1653 ft | 20 kts | 137° |
| 2026-04-19 05:09 | 46.77864 | -100.75849 | 1659 ft | 24 kts | 137° |
| 2026-04-19 05:09 | 46.77736 | -100.75681 | 1671 ft | 24 kts | 137° |
| 2026-04-19 05:10 | 46.77623 | -100.75563 | 1651 ft | 13 kts | 182° |
| 2026-04-19 05:10 | 46.77568 | -100.75620 | 1653 ft | 8 kts | 224° |
| 2026-04-19 05:10 | 46.77551 | -100.75658 | 1659 ft | 0 kts | 236° |
| 2026-04-19 05:12 | 46.77833 | -100.75807 | 1669 ft | 5 kts | 138° |
| 2026-04-19 05:12 | 46.77551 | -100.75658 | 1654 ft | 0 kts | 236° |
| 2026-04-19 05:12 | 46.78041 | -100.76087 | 1661 ft | 0 kts | 137° |